Time;durP1;ratioP1;P1;durP2;ratioP2;P2;SDS_P1;SDS_P2;PMS_P1;PMS_P2;Temp;Humidity;BMP_temperature;BMP_pressure;BME280_temperature;BME280_humidity;BME280_pressure;Samples;Min_cycle;Max_cycle;Signal;HPM_P1;HPM_P2
2022/12/11 00:00:27;;;;;;;5.13;3.10;;;;;;;-5.14;86.06;101137.41;10613149;27;20035;-79
2022/12/11 00:05:29;;;;;;;5.70;3.20;;;;;;;-5.08;86.11;101135.91;10646820;27;20042;-79
2022/12/11 00:10:32;;;;;;;6.88;3.60;;;;;;;-5.08;86.66;101127.88;10656381;27;20042;-79
2022/12/11 00:15:37;;;;;;;7.68;3.95;;;;;;;-5.07;85.91;101132.22;10623609;27;20044;-79
2022/12/11 00:20:39;;;;;;;5.55;3.97;;;;;;;-5.05;85.90;101135.56;10571271;27;20051;-79
2022/12/11 00:25:43;;;;;;;6.43;3.90;;;;;;;-5.05;85.68;101131.03;10615462;27;20047;-78
2022/12/11 00:30:46;;;;;;;5.13;3.65;;;;;;;-4.99;86.05;101137.59;10612585;27;20051;-78
2022/12/11 00:35:48;;;;;;;7.18;4.07;;;;;;;-4.96;85.69;101137.25;10601142;28;20039;-79
2022/12/11 00:40:50;;;;;;;4.95;3.17;;;;;;;-4.94;85.41;101143.25;10608135;28;20044;-78
2022/12/11 00:45:52;;;;;;;5.82;4.20;;;;;;;-4.92;85.24;101151.94;10612398;27;20039;-79
2022/12/11 00:50:55;;;;;;;5.30;4.15;;;;;;;-4.92;85.44;101143.91;10613270;28;20039;-78
2022/12/11 00:55:57;;;;;;;5.25;3.90;;;;;;;-4.98;85.75;101142.75;10607162;27;20419;-78
2022/12/11 01:01:14;;;;;;;6.15;3.28;;;;;;;-5.02;85.42;101137.94;10656167;27;20042;-78
2022/12/11 01:06:21;;;;;;;5.80;3.60;;;;;;;-5.05;85.25;101132.88;10648458;27;20039;-78
2022/12/11 01:11:24;;;;;;;6.80;4.20;;;;;;;-5.06;84.94;101150.78;10613385;28;20523;-78
2022/12/11 01:16:26;;;;;;;6.38;4.20;;;;;;;-5.06;84.98;101131.22;10570290;28;20044;-78
2022/12/11 01:21:28;;;;;;;6.05;3.35;;;;;;;-5.08;84.99;101130.53;10636683;27;20439;-78
2022/12/11 01:26:30;;;;;;;5.47;3.65;;;;;;;-5.09;85.29;101134.22;10637713;27;20043;-78
2022/12/11 01:31:32;;;;;;;5.30;3.65;;;;;;;-5.10;84.67;101145.94;10602865;27;20058;-78
2022/12/11 01:36:35;;;;;;;5.40;3.35;;;;;;;-5.13;84.58;101138.25;10611857;28;20527;-78
2022/12/11 01:41:38;;;;;;;5.13;3.58;;;;;;;-5.14;85.24;101136.56;10592251;28;20445;-77
2022/12/11 01:46:40;;;;;;;6.00;3.15;;;;;;;-5.13;84.89;101127.53;10568909;28;20051;-78
2022/12/11 01:51:53;;;;;;;5.88;3.38;;;;;;;-5.12;84.50;101134.56;10570012;28;20044;-78
2022/12/11 01:57:00;;;;;;;6.30;3.10;;;;;;;-5.16;84.64;101142.09;10550574;28;20517;-78
2022/12/11 02:02:06;;;;;;;5.85;3.50;;;;;;;-5.19;85.29;101137.91;10579846;28;20043;-78
2022/12/11 02:07:08;;;;;;;7.72;3.28;;;;;;;-5.18;84.76;101141.44;10552076;28;20052;-78
2022/12/11 02:12:46;;;;;;;4.60;3.40;;;;;;;-5.18;85.00;101134.25;10549597;28;20051;-78
2022/12/11 02:18:13;;;;;;;5.93;3.70;;;;;;;-5.17;85.19;101146.59;10551383;28;20051;-78
2022/12/11 02:23:18;;;;;;;5.88;3.38;;;;;;;-5.18;85.03;101147.63;10567142;28;20063;-78
2022/12/11 02:28:52;;;;;;;5.28;3.70;;;;;;;-5.17;85.38;101149.28;10569202;28;20036;-78
2022/12/11 02:34:02;;;;;;;5.30;3.58;;;;;;;-5.14;85.19;101149.94;10585701;28;20067;-78
2022/12/11 02:39:06;;;;;;;7.18;3.78;;;;;;;-5.15;85.69;101135.75;10600032;28;20035;-78
2022/12/11 02:44:11;;;;;;;8.07;4.50;;;;;;;-5.17;85.78;101141.25;10584076;28;20046;-78
2022/12/11 02:49:14;;;;;;;6.65;4.38;;;;;;;-5.19;85.58;101142.44;10599381;28;20426;-78
2022/12/11 02:54:19;;;;;;;5.93;4.20;;;;;;;-5.20;85.74;101148.78;10618944;28;20035;-78
2022/12/11 02:59:42;;;;;;;6.88;4.03;;;;;;;-5.26;86.31;101139.56;10601222;28;20532;-78
2022/12/11 03:04:46;;;;;;;6.68;4.28;;;;;;;-5.30;86.43;101154.28;10616521;28;20047;-77
2022/12/11 03:09:49;;;;;;;6.85;4.03;;;;;;;-5.33;86.51;101151.94;10617185;28;20035;-77
2022/12/11 03:14:51;;;;;;;5.07;3.20;;;;;;;-5.36;86.20;101146.09;10616520;28;20044;-77
2022/12/11 03:20:17;;;;;;;7.30;3.75;;;;;;;-5.38;86.22;101140.91;10617748;28;20521;-78
2022/12/11 03:25:22;;;;;;;4.72;2.90;;;;;;;-5.38;86.43;101143.59;10616050;28;20036;-78
2022/12/11 03:30:27;;;;;;;6.00;4.03;;;;;;;-5.39;86.33;101144.56;10611931;28;20537;-78
2022/12/11 03:35:57;;;;;;;6.32;4.18;;;;;;;-5.39;86.69;101155.25;10595650;27;20056;-78
2022/12/11 03:41:01;;;;;;;6.85;3.90;;;;;;;-5.36;86.51;101154.94;10613914;28;20047;-78
2022/12/11 03:46:03;;;;;;;7.80;4.65;;;;;;;-5.30;86.45;101154.28;10596530;28;20054;-78
2022/12/11 03:51:06;;;;;;;6.05;3.50;;;;;;;-5.30;86.09;101158.78;10580504;27;20036;-78
2022/12/11 03:56:09;;;;;;;7.35;4.38;;;;;;;-5.32;85.78;101150.94;10584555;27;20497;-78
2022/12/11 04:01:13;;;;;;;7.90;4.18;;;;;;;-5.33;85.52;101151.94;10563561;28;20051;-78
2022/12/11 04:06:15;;;;;;;6.78;3.90;;;;;;;-5.39;86.08;101155.25;10615908;28;20050;-79
2022/12/11 04:11:35;;;;;;;7.32;4.25;;;;;;;-5.43;86.40;101148.56;10617114;27;20047;-78
2022/12/11 04:16:37;;;;;;;8.30;4.45;;;;;;;-5.50;85.78;101147.56;10599603;28;20050;-78
2022/12/11 04:27:00;;;;;;;13.65;6.25;;;;;;;-5.48;85.79;101153.59;10596292;28;20048;-79
2022/12/11 04:32:03;;;;;;;22.65;8.55;;;;;;;-5.46;85.59;101148.91;10613858;28;20532;-79
2022/12/11 04:37:05;;;;;;;10.85;5.28;;;;;;;-5.48;85.68;101161.59;10612635;28;20413;-79
2022/12/11 04:42:07;;;;;;;8.40;3.42;;;;;;;-5.49;86.13;101149.25;10616047;27;20052;-79
2022/12/11 04:47:10;;;;;;;9.95;5.07;;;;;;;-5.51;85.98;101148.56;10594948;27;20055;-78
2022/12/11 04:52:13;;;;;;;10.75;5.15;;;;;;;-5.54;85.73;101147.06;10595312;28;20031;-78
2022/12/11 04:57:15;;;;;;;5.60;4.00;;;;;;;-5.58;86.11;101148.38;10625213;27;20036;-77
2022/12/11 05:02:17;;;;;;;8.70;3.63;;;;;;;-5.60;86.40;101158.38;10607102;28;20055;-80
2022/12/11 05:07:20;;;;;;;5.22;3.05;;;;;;;-5.64;86.08;101156.22;10613232;28;20036;-84
2022/12/11 05:12:23;;;;;;;6.28;4.10;;;;;;;-5.67;86.00;101173.41;10615595;28;20586;-83
2022/12/11 05:17:25;;;;;;;7.05;4.32;;;;;;;-5.70;85.71;101172.91;10613213;28;20409;-82
2022/12/11 05:22:29;;;;;;;4.18;2.80;;;;;;;-5.74;85.73;101183.06;10612176;28;20449;-83
2022/12/11 05:27:32;;;;;;;6.40;3.67;;;;;;;-5.77;86.18;101186.91;10613998;27;20101;-82
2022/12/11 05:33:00;;;;;;;6.10;3.13;;;;;;;-5.78;86.15;101203.09;10573326;28;20040;-83
2022/12/11 05:38:06;;;;;;;5.75;3.67;;;;;;;-5.81;86.30;101198.09;10608881;28;20039;-82
2022/12/11 05:43:13;;;;;;;6.07;3.72;;;;;;;-5.84;86.69;101203.75;10593297;28;20513;-84
2022/12/11 05:48:19;;;;;;;8.48;4.22;;;;;;;-5.85;86.39;101207.44;10612602;27;20054;-83
2022/12/11 05:53:21;;;;;;;7.97;4.57;;;;;;;-5.86;86.60;101227.97;10620769;27;20040;-83
2022/12/11 05:58:24;;;;;;;8.43;4.05;;;;;;;-5.86;86.99;101227.13;10654771;27;20047;-83
2022/12/11 06:03:26;;;;;;;4.45;3.10;;;;;;;-5.86;87.05;101232.47;10619563;27;20058;-81
2022/12/11 06:08:29;;;;;;;8.52;4.03;;;;;;;-5.84;87.57;101236.66;10611047;28;20044;-83
2022/12/11 06:13:32;;;;;;;7.30;4.90;;;;;;;-5.83;87.57;101238.34;10572997;28;20047;-84
2022/12/11 06:18:40;;;;;;;7.75;4.40;;;;;;;-5.84;87.62;101236.66;10585494;28;20035;-82
2022/12/11 06:23:48;;;;;;;6.93;4.22;;;;;;;-5.85;87.67;101240.34;10612273;28;20054;-83
2022/12/11 06:28:50;;;;;;;10.00;5.07;;;;;;;-5.88;87.82;101246.00;10611075;28;20043;-82
2022/12/11 06:33:53;;;;;;;7.90;4.57;;;;;;;-5.88;87.62;101251.34;10611088;28;20055;-83
2022/12/11 06:38:55;;;;;;;5.57;3.70;;;;;;;-5.89;87.40;101244.34;10559955;28;20047;-82
2022/12/11 06:43:58;;;;;;;7.70;4.45;;;;;;;-5.89;87.06;101244.34;10551130;28;20055;-85
2022/12/11 06:49:04;;;;;;;6.88;3.92;;;;;;;-5.91;87.46;101246.34;10599386;28;20051;-83
2022/12/11 06:54:10;;;;;;;7.43;4.72;;;;;;;-5.91;87.43;101249.00;10580009;28;20040;-83
2022/12/11 06:59:13;;;;;;;10.25;5.07;;;;;;;-5.92;87.57;101250.00;10565083;28;20044;-83
2022/12/11 07:04:15;;;;;;;8.55;5.07;;;;;;;-5.96;87.69;101259.34;10566664;28;20067;-83
2022/12/11 07:09:18;;;;;;;10.23;5.25;;;;;;;-5.96;87.53;101275.38;10568651;28;20043;-82
2022/12/11 07:14:21;;;;;;;10.10;5.28;;;;;;;-5.99;87.62;101273.03;10568652;28;20043;-83
2022/12/11 07:19:25;;;;;;;8.70;4.85;;;;;;;-6.02;87.60;101268.00;10572761;28;20044;-84
2022/12/11 07:24:28;;;;;;;9.73;4.65;;;;;;;-6.04;88.06;101261.16;10586802;28;20048;-83
2022/12/11 07:29:30;;;;;;;9.40;5.43;;;;;;;-6.04;87.70;101270.00;10590571;28;20498;-84
2022/12/11 07:34:32;;;;;;;8.75;6.05;;;;;;;-6.04;87.42;101275.34;10599726;28;20043;-84
2022/12/11 07:39:34;;;;;;;8.85;4.72;;;;;;;-6.01;87.42;101277.69;10617449;28;20489;-83
2022/12/11 07:44:36;;;;;;;10.40;5.75;;;;;;;-5.90;87.67;101276.56;10599723;28;20047;-81
2022/12/11 07:49:39;;;;;;;9.50;4.95;;;;;;;-5.37;86.90;101280.81;10617003;27;20047;-82
2022/12/11 07:54:41;;;;;;;12.00;5.20;;;;;;;-5.11;87.46;101275.38;10614607;28;20362;-84
2022/12/11 07:59:43;;;;;;;8.10;4.03;;;;;;;-5.24;86.89;101278.50;10612982;28;20055;-83
2022/12/11 08:04:45;;;;;;;9.85;4.80;;;;;;;-5.27;86.04;101285.00;10614845;28;20525;-85
2022/12/11 08:09:47;;;;;;;9.15;4.93;;;;;;;-5.24;86.28;101292.72;10611945;28;20046;-83
2022/12/11 08:14:49;;;;;;;10.70;6.18;;;;;;;-5.30;86.01;101285.34;10611969;28;20047;-83
2022/12/11 08:19:52;;;;;;;8.88;5.38;;;;;;;-5.37;84.80;101292.34;10614842;28;20048;-82
2022/12/11 08:24:54;;;;;;;10.13;4.47;;;;;;;-5.36;84.68;101291.34;10613166;28;20486;-84
2022/12/11 08:29:57;;;;;;;8.05;4.70;;;;;;;-5.34;84.07;101301.88;10615059;28;20043;-84
2022/12/11 08:34:59;;;;;;;7.72;4.50;;;;;;;-5.30;83.85;101298.72;10614695;28;20502;-83
2022/12/11 08:40:02;;;;;;;9.57;5.40;;;;;;;-5.25;83.49;101299.06;10613717;28;20035;-83
2022/12/11 08:45:05;;;;;;;7.80;5.03;;;;;;;-5.22;82.66;101317.47;10605481;28;20043;-82
2022/12/11 08:50:08;;;;;;;5.53;3.78;;;;;;;-5.18;82.37;101318.84;10543934;28;20064;-81
2022/12/11 08:55:11;;;;;;;6.45;4.18;;;;;;;-5.15;83.20;101312.31;10530422;28;20545;-82
2022/12/11 09:00:18;;;;;;;6.40;3.63;;;;;;;-5.16;83.42;101327.53;10564874;28;20040;-84
2022/12/11 09:05:21;;;;;;;9.05;4.32;;;;;;;-5.11;83.03;101331.56;10578293;28;20047;-82
2022/12/11 09:10:23;;;;;;;7.20;3.97;;;;;;;-5.09;82.96;101341.09;10580794;28;20040;-83
2022/12/11 09:15:25;;;;;;;4.68;2.47;;;;;;;-5.11;83.64;101337.75;10554352;28;20040;-84
2022/12/11 09:20:28;;;;;;;7.45;4.50;;;;;;;-5.08;83.31;101333.91;10571155;28;20043;-82
2022/12/11 09:25:30;;;;;;;4.60;2.70;;;;;;;-5.03;83.06;101339.59;10570498;28;20510;-82
2022/12/11 09:30:32;;;;;;;6.28;2.42;;;;;;;-5.00;82.96;101347.31;10559884;28;20044;-84
2022/12/11 09:35:34;;;;;;;7.25;3.70;;;;;;;-4.98;82.63;101351.50;10601288;28;20502;-84
2022/12/11 09:40:41;;;;;;;8.63;4.72;;;;;;;-4.94;81.77;101350.16;10609882;28;20039;-84
2022/12/11 09:45:44;;;;;;;9.45;4.18;;;;;;;-4.93;81.29;101337.63;10611467;28;20052;-83
2022/12/11 09:50:47;;;;;;;8.35;4.50;;;;;;;-4.97;80.67;101344.31;10577634;28;20048;-83
2022/12/11 09:56:08;;;;;;;7.53;4.38;;;;;;;-5.02;80.71;101342.13;10569759;28;20403;-83
2022/12/11 10:01:20;;;;;;;7.00;3.92;;;;;;;-5.00;81.92;101355.34;10588037;28;20036;-83
2022/12/11 10:06:29;;;;;;;8.10;4.10;;;;;;;-5.02;82.54;101346.66;10611651;28;20505;-83
2022/12/11 10:11:53;;;;;;;8.05;4.53;;;;;;;-5.02;82.18;101354.69;10592707;28;20047;-83
2022/12/11 10:17:12;;;;;;;8.80;4.05;;;;;;;-5.03;82.46;101355.66;10609252;28;20544;-84
2022/12/11 10:22:21;;;;;;;7.63;3.40;;;;;;;-5.06;81.94;101342.59;10593471;28;20036;-84
2022/12/11 10:27:31;;;;;;;5.88;4.45;;;;;;;-5.08;81.88;101344.59;10593321;28;20490;-84
2022/12/11 10:32:44;;;;;;;7.80;3.60;;;;;;;-5.07;81.54;101339.09;10610505;28;20044;-83
2022/12/11 10:37:47;;;;;;;7.70;4.35;;;;;;;-5.06;81.47;101332.72;10611452;28;20048;-84
2022/12/11 10:42:53;;;;;;;8.13;3.97;;;;;;;-5.09;82.38;101332.22;10591746;28;20044;-83
2022/12/11 10:48:08;;;;;;;7.82;4.38;;;;;;;-5.15;82.68;101341.75;10606570;28;20539;-82
2022/12/11 10:53:20;;;;;;;7.30;3.97;;;;;;;-5.20;82.85;101320.84;10589309;28;20056;-82
2022/12/11 10:58:24;;;;;;;6.20;2.90;;;;;;;-5.18;82.55;101315.31;10602867;27;20043;-83
2022/12/11 11:03:27;;;;;;;7.45;4.18;;;;;;;-5.20;82.61;101323.50;10600061;28;20054;-83
2022/12/11 11:08:38;;;;;;;10.02;5.13;;;;;;;-5.19;81.83;101311.81;10617903;28;20493;-83
2022/12/11 11:13:40;;;;;;;8.35;5.00;;;;;;;-5.16;82.63;101321.34;10595800;28;20039;-85
2022/12/11 11:18:53;;;;;;;6.03;3.47;;;;;;;-5.14;82.63;101335.38;10611463;27;20047;-85
2022/12/11 11:23:56;;;;;;;8.52;4.30;;;;;;;-5.18;82.78;101331.38;10595659;28;20035;-85
2022/12/11 11:28:58;;;;;;;1.45;1.13;;;;;;;-5.21;83.41;101296.88;10595892;28;20046;-85
2022/12/11 11:34:05;;;;;;;8.05;4.43;;;;;;;-5.20;83.11;101302.09;10600306;28;20044;-80
2022/12/11 11:39:33;;;;;;;5.47;2.85;;;;;;;-5.20;83.63;101320.00;10566775;28;20038;-82
2022/12/11 11:44:43;;;;;;;9.88;4.63;;;;;;;-5.22;83.40;101328.16;10571159;28;20502;-85
2022/12/11 11:50:05;;;;;;;11.23;3.90;;;;;;;-5.24;83.49;101335.50;10558688;28;20046;-78
2022/12/11 11:55:17;;;;;;;2.97;2.20;;;;;;;-5.25;83.63;101338.34;10566094;28;20052;-80
2022/12/11 12:00:21;;;;;;;6.63;3.35;;;;;;;-5.29;84.74;101321.78;10567069;28;20417;-79
2022/12/11 12:05:39;;;;;;;6.45;3.63;;;;;;;-5.26;83.71;101352.72;10564880;28;20047;-81
2022/12/11 12:10:55;;;;;;;7.97;3.93;;;;;;;-5.30;84.17;101333.50;10518003;28;20040;-82
2022/12/11 12:16:00;;;;;;;6.20;3.25;;;;;;;-5.32;83.26;101340.84;10555585;28;20720;-79
2022/12/11 12:21:24;;;;;;;2.05;1.35;;;;;;;-5.34;83.73;101348.19;10539405;28;20051;-79
2022/12/11 12:26:38;;;;;;;10.27;4.18;;;;;;;-5.33;83.45;101347.19;10493157;28;20040;-84
2022/12/11 12:31:52;;;;;;;6.50;3.33;;;;;;;-5.33;83.20;101346.34;10496386;28;20417;-82
2022/12/11 12:37:16;;;;;;;8.70;4.05;;;;;;;-5.34;83.64;101360.72;10592382;28;20412;-80
2022/12/11 12:42:30;;;;;;;10.05;5.28;;;;;;;-5.39;83.10;101350.47;10646140;27;20417;-85
2022/12/11 12:47:34;;;;;;;10.15;1.88;;;;;;;-5.46;82.87;101341.44;10614432;28;20039;-83
2022/12/11 12:52:38;;;;;;;4.85;2.33;;;;;;;-5.45;82.78;101351.13;10613068;28;20430;-83
2022/12/11 12:57:53;;;;;;;6.00;3.80;;;;;;;-5.52;83.64;101356.28;10578995;28;20036;-83
2022/12/11 13:02:56;;;;;;;6.80;4.07;;;;;;;-5.63;83.87;101342.34;10607666;28;20059;-86
2022/12/11 13:08:01;;;;;;;7.80;3.92;;;;;;;-5.70;84.14;101344.81;10578501;28;20043;-84
2022/12/11 13:13:05;;;;;;;6.05;2.10;;;;;;;-5.74;85.07;101366.66;10593499;28;20036;-81
2022/12/11 13:18:36;;;;;;;5.78;2.92;;;;;;;-5.78;85.34;101356.28;10594424;28;20042;-80
2022/12/11 13:23:39;;;;;;;4.63;2.75;;;;;;;-5.73;84.52;101358.47;10594599;28;20047;-84
2022/12/11 13:28:41;;;;;;;5.55;3.83;;;;;;;-5.79;84.62;101376.00;10580091;28;20039;-81
2022/12/11 13:33:48;;;;;;;6.10;3.25;;;;;;;-5.83;84.44;101349.75;10611932;28;20062;-86
2022/12/11 13:39:02;;;;;;;10.60;4.28;;;;;;;-5.83;84.79;101350.59;10593996;28;20070;-84
2022/12/11 13:44:06;;;;;;;5.28;2.58;;;;;;;-5.87;84.92;101346.56;10555484;28;20051;-84
2022/12/11 13:49:20;;;;;;;6.53;3.92;;;;;;;-5.91;84.96;101349.72;10597840;28;20506;-87
2022/12/11 13:54:23;;;;;;;5.55;3.47;;;;;;;-5.93;85.03;101339.19;10604191;28;20101;-83
2022/12/11 13:59:34;;;;;;;3.13;2.83;;;;;;;-5.96;85.10;101344.00;10613673;28;20049;-84
2022/12/11 14:04:37;;;;;;;6.18;3.42;;;;;;;-5.96;84.81;101342.16;10602879;28;20043;-78
2022/12/11 14:09:42;;;;;;;7.97;2.70;;;;;;;-5.98;85.38;101346.84;10595050;28;20063;-78
2022/12/11 14:14:50;;;;;;;9.60;4.60;;;;;;;-6.00;84.70;101348.81;10606086;28;20046;-78
2022/12/11 14:19:53;;;;;;;3.85;2.58;;;;;;;-5.98;84.72;101325.47;10591944;28;20051;-79
2022/12/11 14:25:02;;;;;;;10.43;4.03;;;;;;;-5.97;84.85;101316.44;10622695;28;20040;-79
2022/12/11 14:30:11;;;;;;;9.98;4.43;;;;;;;-5.97;84.92;101328.97;10598014;28;20050;-78
2022/12/11 14:35:27;;;;;;;6.78;4.10;;;;;;;-6.03;85.39;101322.44;10621327;27;20048;-78
2022/12/11 14:40:34;;;;;;;5.07;3.20;;;;;;;-6.02;85.27;101332.13;10608949;27;20035;-79
2022/12/11 14:45:42;;;;;;;2.57;2.10;;;;;;;-6.01;85.34;101335.63;10574371;27;20413;-78
2022/12/11 14:50:48;;;;;;;4.97;2.65;;;;;;;-6.02;85.83;101341.97;10602139;28;20042;-79
2022/12/11 14:55:52;;;;;;;11.27;5.65;;;;;;;-6.06;85.52;101335.28;10593867;27;20048;-78
2022/12/11 15:01:02;;;;;;;4.25;2.00;;;;;;;-6.08;85.82;101332.72;10620699;27;20035;-79
2022/12/11 15:06:45;;;;;;;6.97;2.90;;;;;;;-6.07;86.13;101329.09;10598137;28;20043;-79
2022/12/11 15:11:48;;;;;;;9.35;4.82;;;;;;;-6.04;85.64;101325.25;10388147;28;20687;-79
2022/12/11 15:16:52;;;;;;;6.53;4.47;;;;;;;-6.00;85.63;101338.13;10531131;28;20052;-77
2022/12/11 15:22:03;;;;;;;3.78;2.55;;;;;;;-6.03;85.53;101326.94;10542655;28;20036;-78
2022/12/11 15:27:06;;;;;;;3.55;2.67;;;;;;;-6.07;86.62;101305.03;10577564;28;20086;-78
2022/12/11 15:32:08;;;;;;;7.60;3.88;;;;;;;-6.10;86.47;101300.81;10616621;28;20052;-79
2022/12/11 15:37:39;;;;;;;6.95;3.80;;;;;;;-6.10;86.09;101275.94;10617103;28;20044;-79
2022/12/11 15:42:41;;;;;;;7.85;4.15;;;;;;;-6.06;86.83;101282.69;10602582;28;20122;-79
2022/12/11 15:47:45;;;;;;;2.85;2.00;;;;;;;-6.04;87.02;101279.84;10616891;28;20704;-78
2022/12/11 15:52:48;;;;;;;5.85;2.63;;;;;;;-6.05;87.11;101287.03;10616801;28;20043;-78
2022/12/11 15:57:56;;;;;;;5.05;2.90;;;;;;;-6.08;87.59;101301.50;10609754;27;20413;-79
2022/12/11 16:02:59;;;;;;;5.43;3.47;;;;;;;-6.12;88.15;101291.31;10593459;27;20042;-82
2022/12/11 16:08:01;;;;;;;3.25;1.88;;;;;;;-6.18;88.15;101289.25;10616809;28;20054;-80
2022/12/11 16:13:03;;;;;;;12.18;5.55;;;;;;;-6.21;88.69;101286.91;10575195;28;20051;-79
2022/12/11 16:18:08;;;;;;;4.70;2.47;;;;;;;-6.24;88.46;101292.56;10613175;28;20070;-82
2022/12/11 16:23:11;;;;;;;2.90;2.30;;;;;;;-6.29;88.81;101262.81;10614403;27;20524;-83
2022/12/11 16:28:16;;;;;;;3.60;3.10;;;;;;;-6.31;89.29;101259.44;10597081;28;20644;-80
2022/12/11 16:33:18;;;;;;;7.05;3.40;;;;;;;-6.36;89.53;101259.94;10581910;27;20039;-82
2022/12/11 16:38:20;;;;;;;4.93;3.00;;;;;;;-6.44;89.86;101250.00;10596661;27;20035;-80
2022/12/11 16:43:22;;;;;;;4.93;2.88;;;;;;;-6.45;89.76;101237.66;10657235;27;20053;-79
2022/12/11 16:48:25;;;;;;;8.02;4.25;;;;;;;-6.46;89.84;101225.31;10620203;27;20051;-80
2022/12/11 16:53:27;;;;;;;5.35;2.72;;;;;;;-6.45;89.50;101229.66;10633008;27;20041;-81
2022/12/11 16:58:29;;;;;;;5.07;2.90;;;;;;;-6.44;89.77;101223.31;10585409;27;20074;-78
2022/12/11 17:03:31;;;;;;;4.70;2.55;;;;;;;-6.45;89.68;101224.31;10606681;27;20047;-80
2022/12/11 17:08:33;;;;;;;4.85;2.22;;;;;;;-6.47;88.79;101226.31;10633924;27;20049;-81
2022/12/11 17:13:36;;;;;;;2.95;2.20;;;;;;;-6.50;89.05;101228.44;10632082;27;20040;-80
2022/12/11 17:18:39;;;;;;;2.53;2.22;;;;;;;-6.57;89.46;101217.56;10604282;28;20044;-81
2022/12/11 17:23:42;;;;;;;4.65;2.55;;;;;;;-6.58;88.49;101210.56;10614802;27;20039;-79
2022/12/11 17:28:45;;;;;;;3.30;2.30;;;;;;;-6.64;89.15;101253.03;10653062;27;20060;-79
2022/12/11 17:33:48;;;;;;;5.47;3.35;;;;;;;-6.73;88.81;101228.13;10621344;28;20052;-80
2022/12/11 17:38:51;;;;;;;3.83;2.58;;;;;;;-6.79;89.13;101252.72;10583955;28;20153;-79
2022/12/11 17:43:53;;;;;;;4.53;2.92;;;;;;;-6.85;89.61;101211.50;10590453;28;20515;-79
2022/12/11 17:48:58;;;;;;;3.20;1.88;;;;;;;-6.88;89.92;101216.31;10581863;27;20047;-80
2022/12/11 17:54:00;;;;;;;3.17;2.10;;;;;;;-6.96;90.06;101209.06;10620251;28;20409;-82
2022/12/11 17:59:03;;;;;;;7.70;2.60;;;;;;;-6.99;90.59;101194.19;10583931;28;20052;-81
2022/12/11 18:04:06;;;;;;;3.38;2.22;;;;;;;-7.05;90.71;101192.16;10585042;27;20055;-80
2022/12/11 18:09:09;;;;;;;3.90;2.67;;;;;;;-7.10;90.99;101178.47;10629863;28;20062;-81
2022/12/11 18:14:11;;;;;;;2.53;1.38;;;;;;;-7.11;91.37;101200.78;10614920;28;20524;-79
2022/12/11 18:19:14;;;;;;;3.22;1.85;;;;;;;-7.09;91.45;101184.63;10611052;28;20040;-80
2022/12/11 18:24:18;;;;;;;2.15;2.00;;;;;;;-7.12;91.25;101169.75;10600879;28;20412;-79
2022/12/11 18:29:20;;;;;;;7.78;3.60;;;;;;;-7.11;92.10;101154.63;10622877;28;20521;-81
2022/12/11 18:34:22;;;;;;;4.68;3.17;;;;;;;-7.09;92.06;101166.78;10618332;28;20052;-80
2022/12/11 18:39:24;;;;;;;1.67;1.17;;;;;;;-7.08;92.41;101167.63;10616564;28;20063;-79
2022/12/11 18:44:26;;;;;;;6.72;2.60;;;;;;;-7.08;92.33;101168.47;10581472;28;20074;-79
2022/12/11 18:49:29;;;;;;;10.88;5.00;;;;;;;-7.10;92.27;101186.47;10616646;28;20035;-79
2022/12/11 18:54:32;;;;;;;6.57;3.72;;;;;;;-7.10;92.27;101185.63;10617633;28;20046;-79
2022/12/11 18:59:35;;;;;;;9.23;3.35;;;;;;;-7.10;92.28;101150.94;10648070;28;20035;-79
2022/12/11 19:04:38;;;;;;;9.00;4.75;;;;;;;-7.09;92.62;101161.47;10583419;28;20611;-80
2022/12/11 19:09:40;;;;;;;3.30;1.95;;;;;;;-7.05;92.87;101133.47;10597614;28;20051;-79
2022/12/11 19:14:42;;;;;;;6.30;3.47;;;;;;;-7.04;92.78;101167.16;10637432;27;20052;-79
2022/12/11 19:19:46;;;;;;;5.13;2.70;;;;;;;-7.04;93.19;101143.16;10590714;28;20048;-80
2022/12/11 19:24:48;;;;;;;3.53;2.63;;;;;;;-7.03;92.78;101165.34;10581923;28;20050;-80
2022/12/11 19:29:50;;;;;;;1.60;1.15;;;;;;;-7.06;93.62;101131.81;10586598;28;20050;-79
2022/12/11 19:34:53;;;;;;;2.03;0.98;;;;;;;-7.04;93.33;101112.97;10603512;28;20050;-78
2022/12/11 19:39:55;;;;;;;2.63;2.30;;;;;;;-7.04;93.45;101140.50;10592979;28;20051;-78
2022/12/11 19:44:58;;;;;;;2.97;1.83;;;;;;;-7.11;93.71;101139.44;10624790;28;20040;-77
2022/12/11 19:50:00;;;;;;;2.05;0.88;;;;;;;-7.14;92.65;101123.72;10628472;27;20040;-78
2022/12/11 19:55:04;;;;;;;2.70;1.85;;;;;;;-7.15;93.11;101111.41;10622096;28;20047;-78
2022/12/11 20:00:07;;;;;;;2.50;2.00;;;;;;;-7.19;92.69;101083.38;10608085;27;20035;-78
2022/12/11 20:05:14;;;;;;;3.40;2.07;;;;;;;-7.27;92.90;101090.47;10598514;28;20039;-77
2022/12/11 20:10:16;;;;;;;1.60;1.27;;;;;;;-7.26;93.07;101109.00;10643681;27;20050;-78
2022/12/11 20:15:19;;;;;;;3.63;1.92;;;;;;;-7.25;93.39;101089.34;10617317;28;20071;-77
2022/12/11 20:20:23;;;;;;;4.30;2.55;;;;;;;-7.20;92.86;101059.53;10606265;28;20073;-80
2022/12/11 20:25:26;;;;;;;4.07;2.55;;;;;;;-7.23;93.40;101079.34;10618098;28;20046;-79
2022/12/11 20:30:28;;;;;;;1.88;0.93;;;;;;;-7.23;93.01;101068.69;10602715;28;20058;-79
2022/12/11 20:35:30;;;;;;;5.07;3.13;;;;;;;-7.25;93.57;101052.00;10629622;27;20052;-80
2022/12/11 20:40:34;;;;;;;4.68;2.60;;;;;;;-7.28;93.65;101051.50;10645411;27;20038;-80
2022/12/11 20:45:36;;;;;;;3.85;2.42;;;;;;;-7.31;93.73;101052.59;10651508;27;20043;-79
2022/12/11 20:50:38;;;;;;;3.95;2.90;;;;;;;-7.38;93.74;101020.41;10649880;27;20559;-80
2022/12/11 20:55:41;;;;;;;3.03;2.50;;;;;;;-7.40;93.20;101017.06;10568658;28;20417;-78
2022/12/11 21:00:43;;;;;;;2.72;1.95;;;;;;;-7.40;93.32;101010.91;10595349;27;20049;-80
2022/12/11 21:05:46;;;;;;;3.40;2.53;;;;;;;-7.39;93.78;101023.25;10629881;27;20430;-79
2022/12/11 21:10:48;;;;;;;3.00;2.70;;;;;;;-7.40;93.74;100979.75;10625901;28;20049;-79
2022/12/11 21:15:52;;;;;;;3.28;2.50;;;;;;;-7.44;93.88;101010.38;10589307;28;20429;-79
2022/12/11 21:20:56;;;;;;;3.58;2.58;;;;;;;-7.44;94.26;101002.38;10625182;27;20417;-78
2022/12/11 21:25:59;;;;;;;2.13;1.92;;;;;;;-7.46;94.11;100990.19;10657322;27;20040;-79
2022/12/11 21:31:04;;;;;;;2.00;1.77;;;;;;;-7.45;93.86;100959.91;10576407;28;20031;-78
2022/12/11 21:36:09;;;;;;;2.97;2.22;;;;;;;-7.46;93.76;100950.19;10577819;27;20054;-79
2022/12/11 21:41:17;;;;;;;1.90;1.70;;;;;;;-7.45;93.60;100957.25;10623962;27;20039;-79
2022/12/11 21:46:22;;;;;;;3.43;1.70;;;;;;;-7.45;94.02;100923.44;10575086;27;20040;-78
2022/12/11 21:51:27;;;;;;;1.75;1.65;;;;;;;-7.45;93.88;100939.41;10625322;27;20495;-81
2022/12/11 21:56:30;;;;;;;1.92;1.63;;;;;;;-7.45;93.30;100949.25;10616141;27;20417;-80
2022/12/11 22:01:39;;;;;;;2.90;2.13;;;;;;;-7.45;93.58;100925.25;10610938;28;20032;-80
2022/12/11 22:06:42;;;;;;;4.10;2.53;;;;;;;-7.45;92.70;100927.91;10584033;27;20054;-79
2022/12/11 22:11:45;;;;;;;1.42;1.33;;;;;;;-7.43;92.76;100918.78;10613339;28;20046;-80
2022/12/11 22:16:47;;;;;;;2.03;1.48;;;;;;;-7.41;92.01;100915.94;10627173;28;20044;-78
2022/12/11 22:21:49;;;;;;;3.10;2.28;;;;;;;-7.41;91.98;100919.44;10595675;28;20047;-80
2022/12/11 22:26:52;;;;;;;1.83;1.40;;;;;;;-7.40;91.90;100906.94;10648912;28;20043;-82
2022/12/11 22:31:54;;;;;;;2.30;1.77;;;;;;;-7.41;91.33;100897.28;10617139;28;20405;-82
2022/12/11 22:36:56;;;;;;;2.10;1.45;;;;;;;-7.36;91.00;100868.31;10578442;28;20040;-81
2022/12/11 22:41:58;;;;;;;3.47;2.13;;;;;;;-7.26;91.21;100906.38;10566792;28;20047;-81
2022/12/11 22:47:00;;;;;;;2.20;1.73;;;;;;;-7.19;90.39;100879.88;10579388;28;20054;-81
2022/12/11 22:52:03;;;;;;;0.90;0.90;;;;;;;-7.14;90.28;100937.06;10580012;28;20040;-76
2022/12/11 22:57:06;;;;;;;4.93;2.00;;;;;;;-7.16;89.71;100867.06;10575329;28;20040;-75
2022/12/11 23:02:08;;;;;;;2.38;1.67;;;;;;;-7.14;88.57;100889.06;10561231;28;20050;-77
2022/12/11 23:07:11;;;;;;;2.08;1.50;;;;;;;-7.13;88.89;100881.91;10558696;28;20138;-75
2022/12/11 23:12:13;;;;;;;1.75;1.65;;;;;;;-7.12;88.23;100873.75;10535406;28;20040;-77
2022/12/11 23:17:16;;;;;;;5.75;1.58;;;;;;;-7.08;88.25;100866.28;10576568;28;20040;-76
2022/12/11 23:22:18;;;;;;;2.75;1.70;;;;;;;-7.06;87.90;100902.47;10556064;28;20059;-78
2022/12/11 23:27:20;;;;;;;3.53;1.98;;;;;;;-7.05;87.96;100869.44;10564077;28;20040;-75